Time;durP1;ratioP1;P1;durP2;ratioP2;P2;SDS_P1;SDS_P2;PMS_P1;PMS_P2;Temp;Humidity;BMP_temperature;BMP_pressure;BME280_temperature;BME280_humidity;BME280_pressure;Samples;Min_cycle;Max_cycle;Signal;HPM_P1;HPM_P2
2023/01/29 00:01:23;;;;;;;46.57;24.67;;;-0.30;99.90;;;;;;5042233;28;20064;-86
2023/01/29 00:03:52;;;;;;;43.00;22.47;;;-0.30;99.90;;;;;;5043297;28;20516;-86
2023/01/29 00:06:17;;;;;;;45.77;24.93;;;-0.30;99.90;;;;;;5043393;28;20028;-86
2023/01/29 00:08:43;;;;;;;40.70;22.70;;;-0.30;99.90;;;;;;5041825;28;20414;-86
2023/01/29 00:11:09;;;;;;;45.23;23.07;;;-0.20;99.90;;;;;;5042219;28;20681;-86
2023/01/29 00:13:35;;;;;;;43.00;22.23;;;-0.30;99.90;;;;;;5024871;28;20029;-86
2023/01/29 00:16:01;;;;;;;40.37;22.33;;;-0.20;99.90;;;;;;5042393;28;20020;-86
2023/01/29 00:18:30;;;;;;;42.30;22.43;;;-0.20;99.90;;;;;;5041309;28;20029;-86
2023/01/29 00:20:56;;;;;;;41.03;22.37;;;-0.20;99.90;;;;;;5041324;28;20033;-86
2023/01/29 00:23:21;;;;;;;42.07;23.43;;;-0.20;99.90;;;;;;5041329;28;20121;-86
2023/01/29 00:25:47;;;;;;;40.67;22.63;;;-0.20;99.90;;;;;;5041390;28;20021;-86
2023/01/29 00:28:13;;;;;;;35.67;22.13;;;-0.20;99.90;;;;;;5041196;28;20032;-86
2023/01/29 00:30:39;;;;;;;37.43;21.30;;;-0.20;99.90;;;;;;5041339;28;20832;-86
2023/01/29 00:33:05;;;;;;;34.60;19.60;;;-0.20;99.90;;;;;;5041583;28;20025;-86
2023/01/29 00:35:32;;;;;;;33.10;20.17;;;-0.20;99.90;;;;;;5023594;28;20033;-86
2023/01/29 00:37:58;;;;;;;32.73;20.43;;;-0.30;99.90;;;;;;5041653;28;20064;-86
2023/01/29 00:40:24;;;;;;;33.37;20.20;;;-0.30;99.90;;;;;;5040707;28;20108;-86
2023/01/29 00:45:38;;;;;;;33.47;19.87;;;-0.30;99.90;;;;;;5040937;28;20538;-86
2023/01/29 00:48:04;;;;;;;33.37;18.70;;;-0.40;99.90;;;;;;5039994;28;20596;-86
2023/01/29 00:50:30;;;;;;;33.43;19.93;;;-0.30;99.90;;;;;;5040409;28;20086;-86
2023/01/29 00:52:56;;;;;;;35.57;22.47;;;-0.30;99.90;;;;;;5040766;28;20044;-86
2023/01/29 00:55:21;;;;;;;29.97;20.13;;;-0.40;99.90;;;;;;5040164;28;20401;-86
2023/01/29 00:57:47;;;;;;;35.20;20.43;;;-0.40;99.90;;;;;;5039636;28;20772;-86
2023/01/29 01:00:15;;;;;;;29.63;19.03;;;-0.40;99.90;;;;;;5040488;28;20207;-86
2023/01/29 01:05:28;;;;;;;30.85;18.63;;;-0.40;99.90;;;;;;5041107;28;20078;-85
2023/01/29 01:07:56;;;;;;;31.03;19.20;;;-0.40;99.90;;;;;;5024028;28;20029;-85
2023/01/29 01:10:29;;;;;;;32.40;19.10;;;-0.40;99.90;;;;;;5022638;28;20017;-85
2023/01/29 01:12:58;;;;;;;34.27;20.00;;;-0.40;99.90;;;;;;5024071;28;20029;-85
2023/01/29 01:15:27;;;;;;;28.40;17.73;;;-0.40;99.90;;;;;;5022286;28;20067;-85
2023/01/29 01:17:58;;;;;;;30.00;17.97;;;-0.40;99.90;;;;;;5023152;28;20028;-85
2023/01/29 01:20:26;;;;;;;30.60;18.13;;;-0.40;99.90;;;;;;5040566;28;20117;-85
2023/01/29 01:22:55;;;;;;;29.57;18.30;;;-0.40;99.90;;;;;;5022694;28;20025;-85
2023/01/29 01:25:23;;;;;;;32.17;18.87;;;-0.40;99.90;;;;;;5040801;28;21490;-85
2023/01/29 01:27:55;;;;;;;30.67;19.40;;;-0.40;99.90;;;;;;5039111;28;20460;-85
2023/01/29 01:30:21;;;;;;;30.37;17.50;;;-0.40;99.90;;;;;;5038415;28;20029;-85
2023/01/29 01:32:46;;;;;;;28.07;18.63;;;-0.40;99.90;;;;;;5039897;28;20040;-85
2023/01/29 01:35:15;;;;;;;27.97;18.10;;;-0.40;99.90;;;;;;5038871;28;20066;-85
2023/01/29 01:37:41;;;;;;;29.00;16.87;;;-0.40;99.90;;;;;;5038560;28;20093;-85
2023/01/29 01:40:16;;;;;;;29.93;17.37;;;-0.40;99.90;;;;;;5022307;28;21382;-85
2023/01/29 01:42:43;;;;;;;28.88;17.35;;;-0.40;99.90;;;;;;5039521;28;20021;-85
2023/01/29 01:45:28;;;;;;;26.63;16.23;;;-0.40;99.90;;;;;;5039370;28;20109;-85
2023/01/29 01:48:04;;;;;;;29.07;17.80;;;-0.40;99.90;;;;;;5021775;28;20033;-85
2023/01/29 01:50:33;;;;;;;30.27;17.43;;;-0.50;99.90;;;;;;5021762;28;20129;-85
2023/01/29 01:53:27;;;;;;;28.77;17.70;;;-0.40;99.90;;;;;;5022262;28;20025;-85
2023/01/29 01:56:00;;;;;;;32.63;18.07;;;-0.50;99.90;;;;;;5036710;28;20191;-85
2023/01/29 01:58:49;;;;;;;28.43;18.33;;;-0.40;99.90;;;;;;5040933;28;20402;-85
2023/01/29 02:01:16;;;;;;;32.60;18.97;;;-0.40;99.90;;;;;;5036165;28;20044;-86
2023/01/29 02:09:34;;;;;;;32.23;18.57;;;-0.40;99.90;;;;;;5042978;28;20032;-85
2023/01/29 02:12:01;;;;;;;29.90;18.93;;;-0.40;99.90;;;;;;5042110;28;20121;-86
2023/01/29 02:14:27;;;;;;;30.73;19.37;;;-0.50;99.90;;;;;;5040091;28;20022;-86
2023/01/29 02:16:53;;;;;;;35.07;20.47;;;-0.40;99.90;;;;;;5023197;28;20525;-86
2023/01/29 02:19:49;;;;;;;35.53;18.57;;;-0.40;99.90;;;;;;5039295;28;20466;-86
2023/01/29 02:22:46;;;;;;;29.33;19.43;;;-0.50;99.90;;;;;;5037598;28;20032;-86
2023/01/29 02:25:38;;;;;;;33.87;19.87;;;-0.40;99.90;;;;;;5039107;28;20017;-86
2023/01/29 02:28:41;;;;;;;31.73;19.20;;;-0.40;99.90;;;;;;5038998;28;20421;-85
2023/01/29 02:31:43;;;;;;;30.67;19.47;;;-0.40;99.90;;;;;;5021642;28;20025;-86
2023/01/29 02:37:17;;;;;;;28.87;18.37;;;-0.40;99.90;;;;;;5038372;28;20040;-85
2023/01/29 02:40:12;;;;;;;27.77;18.30;;;-0.40;99.90;;;;;;5039301;28;20024;-86
2023/01/29 02:42:49;;;;;;;30.15;18.75;;;-0.40;99.90;;;;;;5010464;28;20036;-86
2023/01/29 02:45:32;;;;;;;29.80;18.23;;;-0.30;99.90;;;;;;5037383;28;20115;-86
2023/01/29 02:48:01;;;;;;;28.00;17.43;;;-0.40;99.90;;;;;;5038300;28;20025;-86
2023/01/29 02:50:40;;;;;;;26.13;17.20;;;-0.40;99.90;;;;;;5038672;28;20070;-86
2023/01/29 02:53:14;;;;;;;24.53;16.73;;;-0.40;99.90;;;;;;5039129;28;20803;-86
2023/01/29 02:55:46;;;;;;;27.67;17.30;;;-0.40;99.90;;;;;;5038151;28;20030;-86
2023/01/29 02:58:31;;;;;;;30.20;17.17;;;-0.40;99.90;;;;;;5036681;28;20069;-86
2023/01/29 03:01:20;;;;;;;25.42;16.15;;;-0.40;99.90;;;;;;5020960;28;20029;-86
2023/01/29 03:03:51;;;;;;;25.67;16.57;;;-0.40;99.90;;;;;;5037652;28;20045;-86
2023/01/29 03:06:35;;;;;;;26.03;17.30;;;-0.30;99.90;;;;;;5039278;28;20068;-86
2023/01/29 03:09:05;;;;;;;25.97;16.80;;;-0.40;99.90;;;;;;5037792;28;20033;-86
2023/01/29 03:11:38;;;;;;;25.83;17.20;;;-0.40;99.90;;;;;;5037276;28;20039;-86
2023/01/29 03:15:10;;;;;;;25.73;16.67;;;-0.40;99.90;;;;;;5020271;28;20564;-86
2023/01/29 03:17:12;;;;;;;24.87;16.70;;;-0.50;99.90;;;;;;5038089;28;20059;-86
2023/01/29 03:19:42;;;;;;;26.40;16.97;;;-0.50;99.90;;;;;;5021282;28;20254;-86
2023/01/29 03:22:10;;;;;;;26.73;16.40;;;-0.50;99.90;;;;;;5038722;28;20044;-86
2023/01/29 03:33:28;;;;;;;25.30;16.03;;;-0.50;99.90;;;;;;5042222;28;20951;-86
2023/01/29 03:36:08;;;;;;;21.33;14.53;;;-0.50;99.90;;;;;;5041073;28;20049;-86
2023/01/29 03:38:34;;;;;;;22.90;14.73;;;-0.50;99.90;;;;;;5041451;28;20030;-85
2023/01/29 03:41:32;;;;;;;21.20;14.57;;;-0.50;99.90;;;;;;5041071;28;20033;-85
2023/01/29 03:44:20;;;;;;;23.47;14.77;;;-0.50;99.90;;;;;;5040480;28;20041;-86
2023/01/29 03:47:12;;;;;;;21.47;14.60;;;-0.50;99.90;;;;;;5041421;28;20156;-86
2023/01/29 03:50:04;;;;;;;22.13;14.43;;;-0.50;99.90;;;;;;5040999;28;20029;-86
2023/01/29 03:52:51;;;;;;;22.50;14.30;;;-0.60;99.90;;;;;;5041399;28;20094;-86
2023/01/29 03:55:20;;;;;;;22.30;14.70;;;-0.60;99.90;;;;;;5041994;28;20047;-86
2023/01/29 03:57:52;;;;;;;21.80;14.73;;;-0.60;99.90;;;;;;5024317;28;20056;-86
2023/01/29 04:00:30;;;;;;;21.67;14.17;;;-0.50;99.90;;;;;;5041259;28;20025;-86
2023/01/29 04:03:05;;;;;;;18.83;13.77;;;-0.50;99.90;;;;;;5041115;28;20041;-86
2023/01/29 04:05:35;;;;;;;;;;;-0.50;99.90;;;;;;5024757;28;20033;-85
2023/01/29 04:08:09;;;;;;;20.90;13.37;;;-0.50;99.90;;;;;;5041199;28;20422;-86
2023/01/29 04:10:36;;;;;;;20.87;13.83;;;-0.50;99.90;;;;;;5040503;28;20535;-86
2023/01/29 04:13:07;;;;;;;23.23;14.13;;;-0.50;99.90;;;;;;5040785;28;20163;-86
2023/01/29 04:15:45;;;;;;;20.17;13.70;;;-0.50;99.90;;;;;;5023648;28;20060;-86
2023/01/29 04:18:10;;;;;;;20.40;13.47;;;-0.40;99.90;;;;;;5041642;28;20025;-86
2023/01/29 04:20:36;;;;;;;20.73;14.03;;;-0.40;99.90;;;;;;5041958;28;20040;-86
2023/01/29 04:23:06;;;;;;;18.13;12.97;;;-0.40;99.90;;;;;;5023359;28;20045;-86
2023/01/29 04:25:41;;;;;;;19.60;13.43;;;-0.40;99.90;;;;;;5035143;28;20026;-86
2023/01/29 04:28:15;;;;;;;;;;;-0.40;99.90;;;;;;5019058;28;20036;-85
2023/01/29 04:30:58;;;;;;;18.17;12.27;;;-0.40;99.90;;;;;;5040412;28;19915;-86
2023/01/29 04:33:34;;;;;;;22.03;13.73;;;-0.40;99.90;;;;;;5021738;28;20387;-86
2023/01/29 04:36:08;;;;;;;21.17;14.35;;;-0.40;99.90;;;;;;5040918;28;20036;-86
2023/01/29 04:38:46;;;;;;;23.20;14.20;;;-0.40;99.90;;;;;;5040701;28;20036;-86
2023/01/29 04:41:23;;;;;;;21.03;14.00;;;-0.40;99.90;;;;;;5038407;28;20047;-86
2023/01/29 04:44:00;;;;;;;23.50;14.80;;;-0.40;99.90;;;;;;5040336;28;20021;-86
2023/01/29 04:46:56;;;;;;;22.87;15.30;;;-0.40;99.90;;;;;;5040482;28;20817;-85
2023/01/29 04:49:44;;;;;;;20.58;14.02;;;-0.40;99.90;;;;;;5039415;28;21434;-86
2023/01/29 04:52:28;;;;;;;20.63;14.17;;;-0.40;99.90;;;;;;5038581;28;20393;-86
2023/01/29 04:55:31;;;;;;;18.83;13.33;;;-0.40;99.90;;;;;;5039265;28;20051;-86
2023/01/29 04:58:10;;;;;;;19.80;13.37;;;-0.50;99.90;;;;;;5040239;28;20060;-85
2023/01/29 05:00:40;;;;;;;21.17;13.80;;;-0.40;99.90;;;;;;5022227;28;20182;-85
2023/01/29 05:03:08;;;;;;;20.47;13.40;;;-0.50;99.90;;;;;;5038868;28;20041;-86
2023/01/29 05:05:34;;;;;;;24.43;14.13;;;-0.50;99.90;;;;;;5039703;28;20029;-86
2023/01/29 05:08:03;;;;;;;18.60;12.77;;;-0.50;99.90;;;;;;5039279;28;20075;-85
2023/01/29 05:10:29;;;;;;;21.97;14.00;;;-0.50;99.90;;;;;;5039279;28;20083;-85
2023/01/29 05:13:02;;;;;;;16.30;11.97;;;-0.50;99.90;;;;;;5022635;28;20024;-85
2023/01/29 05:15:38;;;;;;;15.23;10.63;;;-0.50;99.90;;;;;;5038957;28;20041;-85
2023/01/29 05:18:07;;;;;;;9.53;6.57;;;-0.50;99.90;;;;;;5021990;28;20059;-85
2023/01/29 05:20:35;;;;;;;15.47;10.23;;;-0.50;99.90;;;;;;5039456;28;20029;-86
2023/01/29 05:23:01;;;;;;;19.40;12.87;;;-0.40;99.90;;;;;;5022324;28;20060;-86
2023/01/29 05:25:29;;;;;;;19.20;12.20;;;-0.30;99.90;;;;;;5039969;28;20517;-86
2023/01/29 05:28:05;;;;;;;17.17;11.60;;;-0.40;99.90;;;;;;5038411;28;20124;-86
2023/01/29 05:30:34;;;;;;;;;;;-0.40;99.90;;;;;;5042605;28;20995;-79
2023/01/29 05:33:00;;;;;;;16.33;11.33;;;-0.40;99.90;;;;;;5042782;28;20676;-78
2023/01/29 05:35:27;;;;;;;21.73;15.80;;;-0.50;99.90;;;;;;5028388;28;20409;-78
2023/01/29 05:37:54;;;;;;;22.33;16.17;;;-0.50;99.90;;;;;;5041494;28;20025;-78
2023/01/29 05:40:20;;;;;;;22.97;14.37;;;-0.50;99.90;;;;;;5042326;28;20579;-78
2023/01/29 05:42:45;;;;;;;22.80;14.50;;;-0.50;99.90;;;;;;5043609;28;20057;-78
2023/01/29 05:45:11;;;;;;;20.40;13.97;;;-0.50;99.90;;;;;;5042815;28;20025;-79
2023/01/29 05:47:36;;;;;;;23.07;14.20;;;-0.50;99.90;;;;;;5042998;28;20021;-78
2023/01/29 05:50:02;;;;;;;19.63;14.00;;;-0.50;99.90;;;;;;5041471;28;20051;-79
2023/01/29 05:52:28;;;;;;;19.57;14.47;;;-0.50;99.90;;;;;;5041472;28;20681;-78
2023/01/29 05:54:53;;;;;;;19.63;13.57;;;-0.50;99.90;;;;;;5042706;28;20075;-78
2023/01/29 05:57:19;;;;;;;19.30;13.47;;;-0.50;99.90;;;;;;5027484;28;20029;-79
2023/01/29 05:59:44;;;;;;;21.83;12.77;;;-0.50;99.90;;;;;;5042773;28;20025;-78
2023/01/29 06:02:10;;;;;;;19.60;13.27;;;-0.50;99.90;;;;;;5042359;28;20108;-78
2023/01/29 06:04:36;;;;;;;18.43;12.43;;;-0.50;99.90;;;;;;5026268;28;20044;-78
2023/01/29 06:07:02;;;;;;;17.80;12.00;;;-0.50;99.90;;;;;;5042618;28;20084;-78
2023/01/29 06:09:27;;;;;;;19.87;13.57;;;-0.50;99.90;;;;;;5044390;28;20357;-78
2023/01/29 06:11:53;;;;;;;19.53;13.47;;;-0.50;99.90;;;;;;5043614;28;20101;-78
2023/01/29 06:14:18;;;;;;;20.47;14.23;;;-0.50;99.90;;;;;;5041912;28;20454;-78
2023/01/29 06:16:44;;;;;;;22.03;14.20;;;-0.50;99.90;;;;;;5028217;28;20358;-78
2023/01/29 06:19:10;;;;;;;19.63;13.20;;;-0.50;99.90;;;;;;5042981;28;20021;-78
2023/01/29 06:21:35;;;;;;;19.53;13.50;;;-0.50;99.90;;;;;;5040878;28;20106;-78
2023/01/29 06:24:04;;;;;;;20.13;13.93;;;-0.50;99.90;;;;;;5043058;28;20132;-78
2023/01/29 06:26:30;;;;;;;19.83;13.73;;;-0.50;99.90;;;;;;5043265;28;20163;-78
2023/01/29 06:28:55;;;;;;;22.03;13.60;;;-0.50;99.90;;;;;;5041356;28;20108;-78
2023/01/29 06:31:21;;;;;;;21.67;14.80;;;-0.50;99.90;;;;;;5026476;28;20036;-78
2023/01/29 06:33:46;;;;;;;22.30;13.77;;;-0.50;99.90;;;;;;5027954;28;20025;-78
2023/01/29 06:36:12;;;;;;;19.63;13.60;;;-0.50;99.90;;;;;;5043100;28;20040;-78
2023/01/29 06:38:37;;;;;;;21.20;13.40;;;-0.50;99.90;;;;;;5040913;28;20021;-78
2023/01/29 06:41:16;;;;;;;14.10;10.43;;;-0.50;99.90;;;;;;5039886;28;21307;-78
2023/01/29 06:43:43;;;;;;;18.53;11.93;;;-0.50;99.90;;;;;;5042120;28;20549;-78
2023/01/29 06:46:09;;;;;;;16.20;10.27;;;-0.50;99.90;;;;;;5024713;28;20359;-78
2023/01/29 06:48:35;;;;;;;14.83;9.20;;;-0.50;99.90;;;;;;5042599;28;20036;-78
2023/01/29 06:51:07;;;;;;;10.13;7.40;;;-0.50;99.90;;;;;;5043262;28;20020;-78
2023/01/29 06:53:36;;;;;;;11.83;8.03;;;-0.50;99.90;;;;;;5024559;28;20025;-78
2023/01/29 06:56:01;;;;;;;15.27;9.93;;;-0.50;99.90;;;;;;5040496;28;20036;-78
2023/01/29 06:58:27;;;;;;;16.23;10.87;;;-0.50;99.90;;;;;;5043966;28;20044;-78
2023/01/29 07:00:52;;;;;;;18.67;13.00;;;-0.50;99.90;;;;;;5042358;28;20079;-78
2023/01/29 07:03:18;;;;;;;16.40;11.67;;;-0.40;99.90;;;;;;5042507;28;20025;-78
2023/01/29 07:05:50;;;;;;;18.57;12.83;;;-0.40;99.90;;;;;;5042629;28;20021;-78
2023/01/29 07:08:16;;;;;;;18.77;12.47;;;-0.50;99.90;;;;;;5043605;28;21296;-78
2023/01/29 07:10:42;;;;;;;17.83;12.17;;;-0.50;99.90;;;;;;5042319;28;20021;-78
2023/01/29 07:13:07;;;;;;;19.40;12.40;;;-0.40;99.90;;;;;;5023813;28;20033;-78
2023/01/29 07:15:33;;;;;;;18.33;11.83;;;-0.50;99.90;;;;;;5024105;28;20032;-78
2023/01/29 07:18:00;;;;;;;19.57;12.30;;;-0.50;99.90;;;;;;5040963;28;20033;-78
2023/01/29 07:20:27;;;;;;;21.00;13.70;;;-0.50;99.90;;;;;;5044021;28;20025;-78
2023/01/29 07:22:57;;;;;;;23.50;13.87;;;-0.50;99.90;;;;;;5041653;28;20104;-78
2023/01/29 07:25:23;;;;;;;19.23;12.83;;;-0.50;99.90;;;;;;5040902;28;20025;-78
2023/01/29 07:27:49;;;;;;;19.47;12.90;;;-0.50;99.90;;;;;;5023899;28;20036;-78
2023/01/29 07:30:15;;;;;;;19.57;13.53;;;-0.40;99.90;;;;;;5025334;28;20017;-78
2023/01/29 07:32:41;;;;;;;20.33;12.30;;;-0.50;99.90;;;;;;5041673;28;20029;-78
2023/01/29 07:35:07;;;;;;;21.67;14.57;;;-0.40;99.90;;;;;;5040994;28;20469;-78
2023/01/29 07:37:32;;;;;;;18.50;13.30;;;-0.40;99.90;;;;;;5035496;28;20043;-85
2023/01/29 07:39:58;;;;;;;18.67;12.60;;;-0.40;99.90;;;;;;5036665;28;20052;-84
2023/01/29 07:42:24;;;;;;;17.33;10.63;;;-0.40;99.90;;;;;;5025159;28;20025;-79
2023/01/29 07:44:49;;;;;;;14.23;10.07;;;-0.30;99.90;;;;;;5041108;28;20475;-86
2023/01/29 07:47:15;;;;;;;13.07;9.27;;;-0.30;99.90;;;;;;5020575;28;20052;-85
2023/01/29 07:49:40;;;;;;;15.43;9.97;;;-0.30;99.90;;;;;;5036902;28;20040;-78
2023/01/29 07:52:06;;;;;;;14.47;10.00;;;-0.30;99.90;;;;;;5041846;28;20083;-78
2023/01/29 07:54:31;;;;;;;14.90;10.30;;;-0.30;99.90;;;;;;5042715;28;20520;-78
2023/01/29 07:56:57;;;;;;;17.23;10.83;;;-0.30;99.90;;;;;;5044157;28;20071;-79
2023/01/29 07:59:23;;;;;;;15.43;9.83;;;-0.20;99.90;;;;;;5041807;28;20057;-84
2023/01/29 08:01:48;;;;;;;14.40;9.80;;;-0.20;99.90;;;;;;5042525;28;20478;-78
2023/01/29 08:04:14;;;;;;;15.07;9.77;;;-0.20;99.90;;;;;;5038915;28;20454;-85
2023/01/29 08:06:39;;;;;;;14.00;9.77;;;-0.20;99.90;;;;;;5036113;28;20033;-85
2023/01/29 08:09:05;;;;;;;14.03;10.10;;;-0.20;99.90;;;;;;5040250;28;20012;-86
2023/01/29 08:11:30;;;;;;;15.23;10.63;;;-0.20;99.90;;;;;;5045510;28;20021;-85
2023/01/29 08:13:56;;;;;;;15.93;10.20;;;-0.10;99.90;;;;;;5041592;28;20114;-85
2023/01/29 08:16:22;;;;;;;15.77;10.57;;;-0.10;99.90;;;;;;5040366;28;20028;-83
2023/01/29 08:18:48;;;;;;;17.97;11.13;;;-0.10;99.90;;;;;;5050509;28;20052;-83
2023/01/29 08:21:14;;;;;;;16.13;11.33;;;-0.10;99.90;;;;;;5041167;28;20013;-83
2023/01/29 08:23:40;;;;;;;16.80;10.90;;;-0.10;99.90;;;;;;5034658;28;20119;-83
2023/01/29 08:26:05;;;;;;;18.47;11.13;;;-0.10;99.90;;;;;;5039270;28;21543;-82
2023/01/29 08:28:31;;;;;;;16.37;11.40;;;0.00;99.90;;;;;;5043713;28;20480;-82
2023/01/29 08:30:56;;;;;;;15.80;10.90;;;0.00;99.90;;;;;;5021096;28;20140;-82
2023/01/29 08:33:22;;;;;;;14.87;10.90;;;0.00;99.90;;;;;;5039054;28;20036;-82
2023/01/29 08:35:50;;;;;;;16.93;11.70;;;0.00;99.90;;;;;;5038966;28;20033;-82
2023/01/29 08:38:16;;;;;;;16.63;11.30;;;0.00;99.90;;;;;;5026377;28;20024;-77
2023/01/29 08:40:42;;;;;;;15.53;10.80;;;0.10;99.90;;;;;;5048282;28;20031;-76
2023/01/29 08:43:11;;;;;;;18.43;11.33;;;0.10;99.90;;;;;;5044904;28;20063;-77
2023/01/29 08:45:42;;;;;;;15.47;10.17;;;0.10;99.90;;;;;;5048425;28;20374;-76
2023/01/29 08:48:08;;;;;;;15.47;10.53;;;0.00;99.90;;;;;;5046087;28;20488;-76
2023/01/29 08:50:34;;;;;;;15.50;10.70;;;0.00;99.90;;;;;;5051665;28;20475;-76
2023/01/29 08:53:02;;;;;;;13.23;9.73;;;0.00;99.90;;;;;;5047403;28;20068;-77
2023/01/29 08:55:28;;;;;;;14.00;10.17;;;0.00;99.90;;;;;;5044147;28;20017;-77
2023/01/29 08:57:56;;;;;;;13.40;9.50;;;0.00;99.90;;;;;;5032615;28;20038;-76
2023/01/29 09:00:22;;;;;;;18.37;11.33;;;0.10;99.90;;;;;;5030475;28;20025;-83
2023/01/29 09:02:47;;;;;;;14.97;10.30;;;0.00;99.90;;;;;;5036181;28;20645;-83
2023/01/29 09:05:13;;;;;;;13.50;9.60;;;0.10;99.90;;;;;;5020021;28;20099;-82
2023/01/29 09:07:38;;;;;;;15.23;10.67;;;0.10;99.90;;;;;;5037067;28;20029;-82
2023/01/29 09:10:04;;;;;;;14.77;10.03;;;0.10;99.90;;;;;;5035354;28;20036;-82
2023/01/29 09:12:30;;;;;;;15.83;10.80;;;0.00;99.90;;;;;;5019825;28;20488;-83
2023/01/29 09:14:55;;;;;;;16.03;11.03;;;0.00;99.90;;;;;;5038121;28;20788;-82
2023/01/29 09:17:23;;;;;;;16.87;11.57;;;0.00;99.90;;;;;;5038293;28;20028;-82
2023/01/29 09:19:51;;;;;;;18.37;11.63;;;0.00;99.90;;;;;;5043385;28;20315;-77
2023/01/29 09:22:18;;;;;;;14.80;10.10;;;0.00;99.90;;;;;;5043707;28;20058;-77
2023/01/29 09:24:44;;;;;;;15.83;10.23;;;0.00;99.90;;;;;;5027698;28;21099;-83
2023/01/29 09:30:14;;;;;;;15.60;10.97;;;0.00;99.90;;;;;;5030076;28;20060;-84
2023/01/29 09:33:44;;;;;;;16.40;11.40;;;0.00;99.90;;;;;;5028801;28;20044;-77
2023/01/29 09:36:14;;;;;;;14.03;9.57;;;0.10;99.90;;;;;;5038469;28;20140;-82
2023/01/29 09:39:17;;;;;;;14.00;10.10;;;0.10;99.90;;;;;;5030614;28;20095;-80
2023/01/29 09:42:25;;;;;;;14.83;9.87;;;0.10;99.90;;;;;;5027457;28;20477;-80
2023/01/29 09:45:04;;;;;;;14.77;9.70;;;0.10;99.90;;;;;;5019176;28;20029;-79
2023/01/29 09:48:05;;;;;;;16.30;11.00;;;0.10;99.90;;;;;;5039967;28;20445;-80
2023/01/29 09:50:47;;;;;;;13.40;9.37;;;0.00;99.90;;;;;;5026072;28;20032;-80
2023/01/29 09:53:53;;;;;;;15.37;10.30;;;0.00;99.90;;;;;;5023017;28;20385;-81
2023/01/29 09:56:27;;;;;;;15.47;9.73;;;0.00;99.90;;;;;;5051676;28;20056;-83
2023/01/29 09:59:03;;;;;;;12.70;9.43;;;0.00;99.90;;;;;;5048133;28;20374;-83
2023/01/29 10:01:53;;;;;;;13.33;9.67;;;0.10;99.90;;;;;;5031027;28;20199;-83
2023/01/29 10:04:47;;;;;;;13.67;9.87;;;0.00;99.90;;;;;;5043836;28;20025;-83
2023/01/29 10:07:36;;;;;;;13.63;9.50;;;0.10;99.90;;;;;;5024982;28;20397;-83
2023/01/29 10:10:32;;;;;;;11.93;8.50;;;0.10;99.90;;;;;;5052560;28;20024;-79
2023/01/29 10:13:18;;;;;;;13.20;8.63;;;0.10;99.90;;;;;;5049763;28;20021;-79
2023/01/29 10:16:02;;;;;;;13.07;9.47;;;0.10;99.90;;;;;;5051233;28;20060;-80
2023/01/29 10:18:45;;;;;;;14.50;9.00;;;0.10;99.90;;;;;;5052377;28;20032;-80
2023/01/29 10:21:33;;;;;;;15.43;10.00;;;0.10;99.90;;;;;;5050013;28;20053;-80
2023/01/29 10:24:25;;;;;;;12.93;9.50;;;0.10;99.90;;;;;;5041561;28;20033;-79
2023/01/29 10:26:51;;;;;;;12.93;9.37;;;0.20;99.90;;;;;;5042875;28;20052;-79
2023/01/29 10:29:20;;;;;;;13.13;9.20;;;0.10;99.90;;;;;;5017006;28;20025;-78
2023/01/29 10:31:52;;;;;;;12.53;8.93;;;0.20;99.90;;;;;;5049121;28;20018;-79
2023/01/29 10:34:31;;;;;;;12.17;9.17;;;0.20;99.90;;;;;;5045024;28;20485;-79
2023/01/29 10:36:56;;;;;;;13.13;9.40;;;0.20;99.90;;;;;;5033979;28;20032;-79
2023/01/29 10:39:24;;;;;;;14.77;9.40;;;0.20;99.90;;;;;;5043452;28;20029;-79
2023/01/29 10:41:56;;;;;;;15.17;10.53;;;0.20;99.90;;;;;;5045986;28;20042;-82
2023/01/29 10:44:40;;;;;;;12.83;9.43;;;0.20;99.90;;;;;;5043536;28;20032;-82
2023/01/29 10:47:32;;;;;;;14.77;9.90;;;0.20;99.90;;;;;;5024341;28;20033;-82
2023/01/29 10:50:16;;;;;;;14.40;10.07;;;0.20;99.90;;;;;;5041683;28;20175;-82
2023/01/29 10:53:21;;;;;;;13.33;9.50;;;0.30;99.90;;;;;;5026537;28;20017;-81
2023/01/29 10:56:23;;;;;;;14.43;9.70;;;0.30;99.90;;;;;;5043066;28;20103;-82
2023/01/29 10:58:55;;;;;;;14.03;9.90;;;0.30;99.90;;;;;;5045834;28;20053;-82
2023/01/29 11:01:21;;;;;;;13.67;9.50;;;0.30;99.90;;;;;;5042522;28;20146;-82
2023/01/29 11:03:58;;;;;;;15.17;10.70;;;0.30;99.90;;;;;;5042377;28;20463;-82
2023/01/29 11:06:31;;;;;;;17.60;11.07;;;0.20;99.90;;;;;;5043901;28;20097;-82
2023/01/29 11:09:00;;;;;;;14.80;10.10;;;0.20;99.90;;;;;;5028851;28;20029;-82
2023/01/29 11:11:55;;;;;;;14.50;10.27;;;0.20;99.90;;;;;;5045640;28;20029;-82
2023/01/29 11:14:25;;;;;;;14.07;10.27;;;0.20;99.90;;;;;;5016185;28;20417;-82
2023/01/29 11:16:51;;;;;;;17.87;11.70;;;0.20;99.90;;;;;;5022437;28;20547;-82
2023/01/29 11:19:17;;;;;;;14.93;10.73;;;0.20;99.90;;;;;;5021966;28;20037;-82
2023/01/29 11:21:52;;;;;;;14.27;9.40;;;0.30;99.90;;;;;;5041780;28;20028;-82
2023/01/29 11:24:18;;;;;;;14.07;10.20;;;0.20;99.90;;;;;;5040686;28;20055;-83
2023/01/29 11:26:46;;;;;;;14.60;10.60;;;0.20;99.90;;;;;;5043034;28;20056;-83
2023/01/29 11:29:37;;;;;;;12.97;9.90;;;0.20;99.90;;;;;;5043764;28;20025;-83
2023/01/29 11:32:23;;;;;;;15.63;10.70;;;0.20;99.90;;;;;;5041579;28;20428;-82
2023/01/29 11:35:14;;;;;;;15.23;9.83;;;0.30;99.90;;;;;;5042910;28;20549;-82
2023/01/29 11:37:42;;;;;;;15.73;10.97;;;0.30;99.90;;;;;;5026786;28;20021;-82
2023/01/29 11:40:31;;;;;;;16.50;10.60;;;0.30;99.90;;;;;;5041301;28;20071;-82
2023/01/29 11:43:28;;;;;;;14.50;10.17;;;0.30;99.90;;;;;;5045445;28;20017;-82
2023/01/29 11:46:03;;;;;;;13.53;9.90;;;0.30;99.90;;;;;;5030237;28;20032;-82
2023/01/29 11:48:40;;;;;;;13.67;9.90;;;0.30;99.90;;;;;;5045653;28;20025;-82
2023/01/29 11:51:07;;;;;;;13.57;9.50;;;0.30;99.90;;;;;;5047231;28;20029;-83
2023/01/29 11:53:36;;;;;;;13.97;9.90;;;0.40;99.90;;;;;;5046705;28;20037;-80
2023/01/29 11:56:34;;;;;;;16.87;11.10;;;0.40;99.90;;;;;;5056960;28;20346;-80
2023/01/29 11:59:04;;;;;;;14.47;10.43;;;0.40;99.90;;;;;;5029385;28;20045;-80
2023/01/29 12:01:36;;;;;;;16.17;10.57;;;0.40;99.90;;;;;;5037934;28;20076;-80
2023/01/29 12:04:24;;;;;;;14.50;11.00;;;0.40;99.90;;;;;;5046285;28;20060;-80
2023/01/29 12:06:54;;;;;;;14.47;9.83;;;0.40;99.90;;;;;;5035829;28;20025;-79
2023/01/29 12:09:26;;;;;;;15.03;10.40;;;0.40;99.90;;;;;;5056116;28;20079;-80
2023/01/29 12:15:44;;;;;;;14.87;10.10;;;0.50;99.90;;;;;;4952793;28;20038;-80
2023/01/29 12:18:55;;;;;;;14.63;9.60;;;0.50;99.90;;;;;;5028105;28;20029;-79
2023/01/29 12:25:17;;;;;;;12.80;9.67;;;0.70;99.90;;;;;;4989075;28;20035;-82
2023/01/29 12:28:06;;;;;;;12.97;8.97;;;0.70;99.90;;;;;;5027241;28;20033;-79
2023/01/29 12:31:14;;;;;;;14.10;9.60;;;0.70;99.90;;;;;;5046648;28;20052;-81
2023/01/29 12:33:54;;;;;;;13.40;9.17;;;0.60;99.90;;;;;;5029758;28;20029;-79
2023/01/29 12:37:03;;;;;;;17.83;11.43;;;0.70;99.90;;;;;;5036685;28;20162;-78
2023/01/29 12:39:44;;;;;;;14.80;10.67;;;0.70;99.90;;;;;;5046878;28;20021;-79
2023/01/29 12:42:13;;;;;;;14.17;9.80;;;0.70;99.90;;;;;;5043661;28;20029;-81
2023/01/29 12:45:43;;;;;;;15.63;10.87;;;0.60;99.90;;;;;;5021194;28;20025;-82
2023/01/29 12:48:33;;;;;;;17.00;11.15;;;0.60;99.90;;;;;;5039516;28;20040;-81
2023/01/29 12:51:40;;;;;;;;;;;;;;;;;;;;;
2023/01/29 12:54:12;;;;;;;;;;;0.50;99.90;;;;;;5037402;28;20041;-82
2023/01/29 12:56:55;;;;;;;14.03;9.57;;;0.50;99.90;;;;;;5038848;28;19916;-80
2023/01/29 13:00:37;;;;;;;15.67;10.20;;;0.50;99.90;;;;;;5037459;28;20521;-83
2023/01/29 13:03:24;;;;;;;15.20;10.50;;;0.50;99.90;;;;;;4924166;28;20082;-79
2023/01/29 13:05:56;;;;;;;15.20;10.77;;;0.50;99.90;;;;;;4966187;28;20039;-81
2023/01/29 13:08:31;;;;;;;18.17;10.63;;;0.50;99.90;;;;;;5032473;28;20108;-77
2023/01/29 13:11:00;;;;;;;14.93;10.30;;;0.50;99.90;;;;;;5040034;28;20033;-77
2023/01/29 13:13:51;;;;;;;13.97;9.43;;;0.50;99.90;;;;;;5041144;28;20013;-77
2023/01/29 13:16:22;;;;;;;14.83;10.70;;;0.50;99.90;;;;;;5047596;28;20021;-77
2023/01/29 13:19:03;;;;;;;16.93;11.17;;;0.50;99.90;;;;;;5052211;28;20084;-78
2023/01/29 13:21:35;;;;;;;12.63;9.67;;;0.60;99.90;;;;;;5031700;28;20778;-77
2023/01/29 13:24:14;;;;;;;12.77;9.03;;;0.50;99.90;;;;;;5042626;28;20474;-77
2023/01/29 13:26:44;;;;;;;13.27;9.43;;;0.50;99.90;;;;;;5043219;28;20029;-77
2023/01/29 13:29:27;;;;;;;14.40;9.90;;;0.40;99.90;;;;;;5043987;28;20036;-77
2023/01/29 13:32:03;;;;;;;13.60;9.40;;;0.40;99.90;;;;;;5043371;28;20048;-77
2023/01/29 13:34:35;;;;;;;14.97;9.57;;;0.40;99.90;;;;;;5049386;28;20033;-78
2023/01/29 13:37:11;;;;;;;14.73;10.20;;;0.30;99.90;;;;;;5033422;28;20028;-78
2023/01/29 13:39:47;;;;;;;16.17;11.57;;;0.40;99.90;;;;;;5027740;28;20029;-78
2023/01/29 13:42:20;;;;;;;16.47;10.80;;;0.40;99.90;;;;;;5043459;28;20063;-78
2023/01/29 13:44:53;;;;;;;15.27;10.13;;;0.40;99.90;;;;;;5044599;28;20051;-78